sensor_id;sensor_type;location;lat;lon;timestamp;P1;durP1;ratioP1;P2;durP2;ratioP2
67819;SDS011;54618;52.018;5.576;2024-01-07T00:01:38;23.77;;;10.13;;
67819;SDS011;54618;52.018;5.576;2024-01-07T00:04:03;18.10;;;8.57;;
67819;SDS011;54618;52.018;5.576;2024-01-07T00:06:29;20.35;;;8.75;;
67819;SDS011;54618;52.018;5.576;2024-01-07T00:08:54;21.13;;;9.82;;
67819;SDS011;54618;52.018;5.576;2024-01-07T00:11:20;22.55;;;8.77;;
67819;SDS011;54618;52.018;5.576;2024-01-07T00:13:46;20.75;;;9.60;;
67819;SDS011;54618;52.018;5.576;2024-01-07T00:16:12;21.58;;;9.65;;
67819;SDS011;54618;52.018;5.576;2024-01-07T00:18:37;22.20;;;8.65;;
67819;SDS011;54618;52.018;5.576;2024-01-07T00:21:04;19.60;;;9.65;;
67819;SDS011;54618;52.018;5.576;2024-01-07T00:23:29;21.70;;;8.88;;
67819;SDS011;54618;52.018;5.576;2024-01-07T00:25:55;23.77;;;10.25;;
67819;SDS011;54618;52.018;5.576;2024-01-07T00:28:20;22.85;;;9.82;;
67819;SDS011;54618;52.018;5.576;2024-01-07T00:30:46;19.42;;;8.73;;
67819;SDS011;54618;52.018;5.576;2024-01-07T00:33:12;19.73;;;8.52;;
67819;SDS011;54618;52.018;5.576;2024-01-07T00:35:37;21.23;;;9.50;;
67819;SDS011;54618;52.018;5.576;2024-01-07T00:38:03;20.30;;;9.05;;
67819;SDS011;54618;52.018;5.576;2024-01-07T00:40:29;24.40;;;9.35;;
67819;SDS011;54618;52.018;5.576;2024-01-07T00:42:54;20.33;;;8.75;;
67819;SDS011;54618;52.018;5.576;2024-01-07T00:45:20;22.02;;;9.55;;
67819;SDS011;54618;52.018;5.576;2024-01-07T00:47:46;21.45;;;9.73;;
67819;SDS011;54618;52.018;5.576;2024-01-07T00:50:12;24.63;;;10.43;;
67819;SDS011;54618;52.018;5.576;2024-01-07T00:52:38;21.75;;;9.35;;
67819;SDS011;54618;52.018;5.576;2024-01-07T00:55:06;24.15;;;10.05;;
67819;SDS011;54618;52.018;5.576;2024-01-07T00:57:32;22.08;;;10.52;;
67819;SDS011;54618;52.018;5.576;2024-01-07T00:59:58;21.42;;;8.45;;
67819;SDS011;54618;52.018;5.576;2024-01-07T01:02:25;24.13;;;10.48;;
67819;SDS011;54618;52.018;5.576;2024-01-07T01:04:50;24.00;;;10.65;;
67819;SDS011;54618;52.018;5.576;2024-01-07T01:07:16;27.88;;;12.02;;
67819;SDS011;54618;52.018;5.576;2024-01-07T01:09:44;27.17;;;10.50;;
67819;SDS011;54618;52.018;5.576;2024-01-07T01:12:10;25.75;;;10.23;;
67819;SDS011;54618;52.018;5.576;2024-01-07T01:14:36;28.48;;;11.52;;
67819;SDS011;54618;52.018;5.576;2024-01-07T01:17:01;24.20;;;11.02;;
67819;SDS011;54618;52.018;5.576;2024-01-07T01:19:27;29.17;;;11.73;;
67819;SDS011;54618;52.018;5.576;2024-01-07T01:21:53;31.40;;;13.00;;
67819;SDS011;54618;52.018;5.576;2024-01-07T01:24:18;24.73;;;11.20;;
67819;SDS011;54618;52.018;5.576;2024-01-07T01:26:44;30.50;;;12.48;;
67819;SDS011;54618;52.018;5.576;2024-01-07T01:29:10;28.77;;;12.48;;
67819;SDS011;54618;52.018;5.576;2024-01-07T01:31:35;30.08;;;12.35;;
67819;SDS011;54618;52.018;5.576;2024-01-07T01:34:01;29.08;;;12.20;;
67819;SDS011;54618;52.018;5.576;2024-01-07T01:36:35;28.00;;;11.38;;
67819;SDS011;54618;52.018;5.576;2024-01-07T01:39:01;30.75;;;12.48;;
67819;SDS011;54618;52.018;5.576;2024-01-07T01:41:30;30.08;;;13.20;;
67819;SDS011;54618;52.018;5.576;2024-01-07T01:43:59;29.05;;;12.30;;
67819;SDS011;54618;52.018;5.576;2024-01-07T01:46:26;30.33;;;13.23;;
67819;SDS011;54618;52.018;5.576;2024-01-07T01:48:55;29.10;;;12.23;;
67819;SDS011;54618;52.018;5.576;2024-01-07T01:51:21;27.27;;;12.30;;
67819;SDS011;54618;52.018;5.576;2024-01-07T01:53:47;25.35;;;11.50;;
67819;SDS011;54618;52.018;5.576;2024-01-07T01:56:15;28.17;;;11.57;;
67819;SDS011;54618;52.018;5.576;2024-01-07T01:58:45;28.55;;;12.20;;
67819;SDS011;54618;52.018;5.576;2024-01-07T02:01:11;25.08;;;10.98;;
67819;SDS011;54618;52.018;5.576;2024-01-07T02:03:38;26.80;;;11.38;;
67819;SDS011;54618;52.018;5.576;2024-01-07T02:06:04;26.98;;;11.35;;
67819;SDS011;54618;52.018;5.576;2024-01-07T02:08:29;24.60;;;10.65;;
67819;SDS011;54618;52.018;5.576;2024-01-07T02:10:56;26.45;;;11.10;;
67819;SDS011;54618;52.018;5.576;2024-01-07T02:13:22;25.20;;;11.07;;
67819;SDS011;54618;52.018;5.576;2024-01-07T02:15:48;27.55;;;12.40;;
67819;SDS011;54618;52.018;5.576;2024-01-07T02:18:13;25.55;;;11.13;;
67819;SDS011;54618;52.018;5.576;2024-01-07T02:20:39;25.33;;;11.27;;
67819;SDS011;54618;52.018;5.576;2024-01-07T02:23:05;23.35;;;11.00;;
67819;SDS011;54618;52.018;5.576;2024-01-07T02:25:37;25.90;;;9.90;;
67819;SDS011;54618;52.018;5.576;2024-01-07T02:28:03;19.33;;;8.25;;
67819;SDS011;54618;52.018;5.576;2024-01-07T02:30:30;27.02;;;10.15;;
67819;SDS011;54618;52.018;5.576;2024-01-07T02:32:55;26.55;;;11.45;;
67819;SDS011;54618;52.018;5.576;2024-01-07T02:35:25;22.98;;;9.35;;
67819;SDS011;54618;52.018;5.576;2024-01-07T02:37:54;26.00;;;11.43;;
67819;SDS011;54618;52.018;5.576;2024-01-07T02:40:19;22.58;;;11.07;;
67819;SDS011;54618;52.018;5.576;2024-01-07T02:42:45;25.30;;;11.38;;
67819;SDS011;54618;52.018;5.576;2024-01-07T02:45:11;26.52;;;11.20;;
67819;SDS011;54618;52.018;5.576;2024-01-07T02:47:36;22.80;;;10.48;;
67819;SDS011;54618;52.018;5.576;2024-01-07T02:50:02;27.73;;;11.75;;
67819;SDS011;54618;52.018;5.576;2024-01-07T02:52:28;21.73;;;10.32;;
67819;SDS011;54618;52.018;5.576;2024-01-07T02:54:53;28.27;;;12.27;;
67819;SDS011;54618;52.018;5.576;2024-01-07T02:57:19;29.92;;;12.68;;
67819;SDS011;54618;52.018;5.576;2024-01-07T02:59:45;26.05;;;11.60;;
67819;SDS011;54618;52.018;5.576;2024-01-07T03:02:10;27.30;;;11.52;;
67819;SDS011;54618;52.018;5.576;2024-01-07T03:04:36;31.25;;;12.23;;
67819;SDS011;54618;52.018;5.576;2024-01-07T03:07:01;28.33;;;11.63;;
67819;SDS011;54618;52.018;5.576;2024-01-07T03:09:27;26.35;;;11.60;;
67819;SDS011;54618;52.018;5.576;2024-01-07T03:11:55;25.85;;;11.93;;
67819;SDS011;54618;52.018;5.576;2024-01-07T03:14:20;28.92;;;11.98;;
67819;SDS011;54618;52.018;5.576;2024-01-07T03:16:51;28.27;;;12.18;;
67819;SDS011;54618;52.018;5.576;2024-01-07T03:19:17;33.47;;;12.77;;
67819;SDS011;54618;52.018;5.576;2024-01-07T03:21:42;32.97;;;14.25;;
67819;SDS011;54618;52.018;5.576;2024-01-07T03:24:08;25.38;;;11.13;;
67819;SDS011;54618;52.018;5.576;2024-01-07T03:26:36;28.95;;;10.93;;
67819;SDS011;54618;52.018;5.576;2024-01-07T03:29:01;28.30;;;11.43;;
67819;SDS011;54618;52.018;5.576;2024-01-07T03:31:30;28.42;;;12.05;;
67819;SDS011;54618;52.018;5.576;2024-01-07T03:33:59;31.48;;;12.10;;
67819;SDS011;54618;52.018;5.576;2024-01-07T03:36:25;27.15;;;11.48;;
67819;SDS011;54618;52.018;5.576;2024-01-07T03:38:51;26.35;;;11.10;;
67819;SDS011;54618;52.018;5.576;2024-01-07T03:41:18;24.77;;;10.32;;
67819;SDS011;54618;52.018;5.576;2024-01-07T03:43:44;25.52;;;10.90;;
67819;SDS011;54618;52.018;5.576;2024-01-07T03:46:14;26.52;;;11.30;;
67819;SDS011;54618;52.018;5.576;2024-01-07T03:48:44;21.67;;;9.88;;
67819;SDS011;54618;52.018;5.576;2024-01-07T03:51:10;24.58;;;10.63;;
67819;SDS011;54618;52.018;5.576;2024-01-07T03:53:35;27.33;;;11.25;;
67819;SDS011;54618;52.018;5.576;2024-01-07T03:56:01;24.95;;;10.25;;
67819;SDS011;54618;52.018;5.576;2024-01-07T03:58:30;24.25;;;10.82;;
67819;SDS011;54618;52.018;5.576;2024-01-07T04:00:56;25.45;;;11.18;;
67819;SDS011;54618;52.018;5.576;2024-01-07T04:03:24;25.42;;;10.43;;
67819;SDS011;54618;52.018;5.576;2024-01-07T04:05:50;24.20;;;11.25;;
67819;SDS011;54618;52.018;5.576;2024-01-07T04:08:15;26.95;;;11.70;;
67819;SDS011;54618;52.018;5.576;2024-01-07T04:10:41;26.25;;;11.23;;
67819;SDS011;54618;52.018;5.576;2024-01-07T04:13:07;23.75;;;10.63;;
67819;SDS011;54618;52.018;5.576;2024-01-07T04:15:33;22.35;;;9.90;;
67819;SDS011;54618;52.018;5.576;2024-01-07T04:18:02;24.70;;;11.05;;
67819;SDS011;54618;52.018;5.576;2024-01-07T04:20:28;21.40;;;10.13;;
67819;SDS011;54618;52.018;5.576;2024-01-07T04:22:54;24.42;;;10.82;;
67819;SDS011;54618;52.018;5.576;2024-01-07T04:25:20;22.23;;;9.98;;
67819;SDS011;54618;52.018;5.576;2024-01-07T04:27:46;25.15;;;11.38;;
67819;SDS011;54618;52.018;5.576;2024-01-07T04:30:12;24.50;;;11.15;;
67819;SDS011;54618;52.018;5.576;2024-01-07T04:32:38;22.60;;;10.80;;
67819;SDS011;54618;52.018;5.576;2024-01-07T04:35:03;21.83;;;9.98;;
67819;SDS011;54618;52.018;5.576;2024-01-07T04:37:31;26.92;;;11.18;;
67819;SDS011;54618;52.018;5.576;2024-01-07T04:39:57;26.60;;;11.73;;
67819;SDS011;54618;52.018;5.576;2024-01-07T04:42:23;24.45;;;11.30;;
67819;SDS011;54618;52.018;5.576;2024-01-07T04:44:49;23.77;;;9.95;;
67819;SDS011;54618;52.018;5.576;2024-01-07T04:47:25;20.90;;;9.02;;
67819;SDS011;54618;52.018;5.576;2024-01-07T04:49:54;22.30;;;10.25;;
67819;SDS011;54618;52.018;5.576;2024-01-07T04:52:21;21.48;;;9.88;;
67819;SDS011;54618;52.018;5.576;2024-01-07T04:54:47;25.23;;;11.32;;
67819;SDS011;54618;52.018;5.576;2024-01-07T04:57:12;22.08;;;10.63;;
67819;SDS011;54618;52.018;5.576;2024-01-07T04:59:38;22.55;;;9.98;;
67819;SDS011;54618;52.018;5.576;2024-01-07T05:02:04;19.10;;;8.70;;
67819;SDS011;54618;52.018;5.576;2024-01-07T05:04:29;22.92;;;10.98;;
67819;SDS011;54618;52.018;5.576;2024-01-07T05:06:55;20.95;;;9.48;;
67819;SDS011;54618;52.018;5.576;2024-01-07T05:09:20;17.85;;;8.70;;
67819;SDS011;54618;52.018;5.576;2024-01-07T05:11:46;17.13;;;8.65;;
67819;SDS011;54618;52.018;5.576;2024-01-07T05:14:11;18.70;;;8.73;;
67819;SDS011;54618;52.018;5.576;2024-01-07T05:16:37;19.02;;;9.02;;
67819;SDS011;54618;52.018;5.576;2024-01-07T05:19:03;19.08;;;9.27;;
67819;SDS011;54618;52.018;5.576;2024-01-07T05:21:28;17.60;;;8.88;;
67819;SDS011;54618;52.018;5.576;2024-01-07T05:23:54;15.95;;;8.60;;
67819;SDS011;54618;52.018;5.576;2024-01-07T05:26:20;19.42;;;9.30;;
67819;SDS011;54618;52.018;5.576;2024-01-07T05:28:46;22.83;;;9.57;;
67819;SDS011;54618;52.018;5.576;2024-01-07T05:31:15;19.55;;;8.63;;
67819;SDS011;54618;52.018;5.576;2024-01-07T05:33:42;20.33;;;9.90;;
67819;SDS011;54618;52.018;5.576;2024-01-07T05:36:09;15.85;;;9.07;;
67819;SDS011;54618;52.018;5.576;2024-01-07T05:38:35;17.48;;;8.13;;
67819;SDS011;54618;52.018;5.576;2024-01-07T05:41:01;18.92;;;9.07;;
67819;SDS011;54618;52.018;5.576;2024-01-07T05:43:29;17.27;;;7.78;;
67819;SDS011;54618;52.018;5.576;2024-01-07T05:45:55;16.17;;;7.53;;
67819;SDS011;54618;52.018;5.576;2024-01-07T05:48:21;18.92;;;9.07;;
67819;SDS011;54618;52.018;5.576;2024-01-07T05:50:49;18.50;;;8.90;;
67819;SDS011;54618;52.018;5.576;2024-01-07T05:53:16;17.73;;;7.90;;
67819;SDS011;54618;52.018;5.576;2024-01-07T05:55:42;15.57;;;8.38;;
67819;SDS011;54618;52.018;5.576;2024-01-07T05:58:08;16.48;;;8.60;;
67819;SDS011;54618;52.018;5.576;2024-01-07T06:00:33;16.63;;;8.38;;
67819;SDS011;54618;52.018;5.576;2024-01-07T06:02:59;15.15;;;7.53;;
67819;SDS011;54618;52.018;5.576;2024-01-07T06:05:25;17.65;;;8.45;;
67819;SDS011;54618;52.018;5.576;2024-01-07T06:07:51;16.23;;;7.93;;
67819;SDS011;54618;52.018;5.576;2024-01-07T06:10:17;14.52;;;8.02;;
67819;SDS011;54618;52.018;5.576;2024-01-07T06:12:42;11.18;;;6.03;;
67819;SDS011;54618;52.018;5.576;2024-01-07T06:15:08;15.02;;;7.60;;
67819;SDS011;54618;52.018;5.576;2024-01-07T06:17:34;14.90;;;7.05;;
67819;SDS011;54618;52.018;5.576;2024-01-07T06:20:00;13.55;;;7.45;;
67819;SDS011;54618;52.018;5.576;2024-01-07T06:22:25;11.90;;;5.80;;
67819;SDS011;54618;52.018;5.576;2024-01-07T06:24:54;15.60;;;8.57;;
67819;SDS011;54618;52.018;5.576;2024-01-07T06:27:19;14.57;;;7.20;;
67819;SDS011;54618;52.018;5.576;2024-01-07T06:29:45;14.15;;;7.97;;
67819;SDS011;54618;52.018;5.576;2024-01-07T06:32:11;18.55;;;8.57;;
67819;SDS011;54618;52.018;5.576;2024-01-07T06:34:36;18.75;;;8.90;;
67819;SDS011;54618;52.018;5.576;2024-01-07T06:37:02;17.35;;;8.23;;
67819;SDS011;54618;52.018;5.576;2024-01-07T06:39:28;13.65;;;6.18;;
67819;SDS011;54618;52.018;5.576;2024-01-07T06:41:55;15.63;;;8.18;;
67819;SDS011;54618;52.018;5.576;2024-01-07T06:44:21;15.00;;;7.78;;
67819;SDS011;54618;52.018;5.576;2024-01-07T06:46:46;13.38;;;7.22;;
67819;SDS011;54618;52.018;5.576;2024-01-07T06:49:12;16.10;;;7.97;;
67819;SDS011;54618;52.018;5.576;2024-01-07T06:51:38;14.88;;;7.57;;
67819;SDS011;54618;52.018;5.576;2024-01-07T06:54:05;14.30;;;7.38;;
67819;SDS011;54618;52.018;5.576;2024-01-07T06:56:30;14.20;;;7.85;;
67819;SDS011;54618;52.018;5.576;2024-01-07T06:58:58;13.77;;;7.00;;
67819;SDS011;54618;52.018;5.576;2024-01-07T07:01:25;15.65;;;7.47;;
67819;SDS011;54618;52.018;5.576;2024-01-07T07:03:50;16.70;;;7.72;;
67819;SDS011;54618;52.018;5.576;2024-01-07T07:06:16;13.45;;;7.43;;
67819;SDS011;54618;52.018;5.576;2024-01-07T07:08:42;14.88;;;7.43;;
67819;SDS011;54618;52.018;5.576;2024-01-07T07:11:08;13.82;;;6.85;;
67819;SDS011;54618;52.018;5.576;2024-01-07T07:13:34;11.88;;;6.50;;
67819;SDS011;54618;52.018;5.576;2024-01-07T07:16:00;14.93;;;7.35;;
67819;SDS011;54618;52.018;5.576;2024-01-07T07:18:25;13.90;;;8.00;;
67819;SDS011;54618;52.018;5.576;2024-01-07T07:20:51;16.05;;;8.15;;
67819;SDS011;54618;52.018;5.576;2024-01-07T07:23:17;14.98;;;7.40;;
67819;SDS011;54618;52.018;5.576;2024-01-07T07:25:43;12.75;;;7.28;;
67819;SDS011;54618;52.018;5.576;2024-01-07T07:28:09;15.45;;;7.45;;
67819;SDS011;54618;52.018;5.576;2024-01-07T07:30:34;15.43;;;7.85;;
67819;SDS011;54618;52.018;5.576;2024-01-07T07:33:00;14.32;;;7.47;;
67819;SDS011;54618;52.018;5.576;2024-01-07T07:35:26;13.13;;;7.03;;
67819;SDS011;54618;52.018;5.576;2024-01-07T07:37:55;15.63;;;7.97;;
67819;SDS011;54618;52.018;5.576;2024-01-07T07:40:20;15.48;;;8.20;;
67819;SDS011;54618;52.018;5.576;2024-01-07T07:42:46;15.35;;;8.02;;
67819;SDS011;54618;52.018;5.576;2024-01-07T07:45:12;13.73;;;7.03;;
67819;SDS011;54618;52.018;5.576;2024-01-07T07:47:37;16.88;;;8.43;;
67819;SDS011;54618;52.018;5.576;2024-01-07T07:50:06;16.45;;;8.65;;
67819;SDS011;54618;52.018;5.576;2024-01-07T07:52:32;16.20;;;8.30;;
67819;SDS011;54618;52.018;5.576;2024-01-07T07:55:00;16.02;;;7.57;;
67819;SDS011;54618;52.018;5.576;2024-01-07T07:57:26;15.15;;;7.63;;
67819;SDS011;54618;52.018;5.576;2024-01-07T07:59:55;15.27;;;7.50;;
67819;SDS011;54618;52.018;5.576;2024-01-07T08:02:21;14.38;;;7.38;;
67819;SDS011;54618;52.018;5.576;2024-01-07T08:04:47;17.77;;;8.60;;
67819;SDS011;54618;52.018;5.576;2024-01-07T08:07:12;13.88;;;7.13;;
67819;SDS011;54618;52.018;5.576;2024-01-07T08:09:38;11.52;;;5.90;;
67819;SDS011;54618;52.018;5.576;2024-01-07T08:12:04;10.90;;;5.88;;
67819;SDS011;54618;52.018;5.576;2024-01-07T08:14:31;13.43;;;6.88;;
67819;SDS011;54618;52.018;5.576;2024-01-07T08:17:00;12.07;;;6.15;;
67819;SDS011;54618;52.018;5.576;2024-01-07T08:19:26;12.38;;;6.65;;
67819;SDS011;54618;52.018;5.576;2024-01-07T08:21:52;9.32;;;5.82;;
67819;SDS011;54618;52.018;5.576;2024-01-07T08:24:18;6.97;;;3.78;;
67819;SDS011;54618;52.018;5.576;2024-01-07T08:26:43;12.15;;;6.28;;
67819;SDS011;54618;52.018;5.576;2024-01-07T08:29:09;10.20;;;5.18;;
67819;SDS011;54618;52.018;5.576;2024-01-07T08:31:35;12.73;;;6.70;;
67819;SDS011;54618;52.018;5.576;2024-01-07T08:34:00;11.02;;;5.75;;
67819;SDS011;54618;52.018;5.576;2024-01-07T08:36:26;8.15;;;4.28;;
67819;SDS011;54618;52.018;5.576;2024-01-07T08:38:51;8.52;;;5.35;;
67819;SDS011;54618;52.018;5.576;2024-01-07T08:41:17;10.90;;;5.90;;
67819;SDS011;54618;52.018;5.576;2024-01-07T08:43:43;10.52;;;5.43;;
67819;SDS011;54618;52.018;5.576;2024-01-07T08:46:10;7.78;;;4.60;;
67819;SDS011;54618;52.018;5.576;2024-01-07T08:48:35;10.30;;;5.43;;
67819;SDS011;54618;52.018;5.576;2024-01-07T08:51:01;10.10;;;5.50;;
67819;SDS011;54618;52.018;5.576;2024-01-07T08:53:28;10.95;;;5.32;;
67819;SDS011;54618;52.018;5.576;2024-01-07T08:55:54;9.50;;;5.82;;
67819;SDS011;54618;52.018;5.576;2024-01-07T08:58:19;9.75;;;5.45;;
67819;SDS011;54618;52.018;5.576;2024-01-07T09:00:47;10.13;;;5.03;;
67819;SDS011;54618;52.018;5.576;2024-01-07T09:03:12;11.93;;;5.28;;
67819;SDS011;54618;52.018;5.576;2024-01-07T09:05:38;10.13;;;6.10;;
67819;SDS011;54618;52.018;5.576;2024-01-07T09:08:04;11.02;;;5.68;;
67819;SDS011;54618;52.018;5.576;2024-01-07T09:10:31;11.20;;;5.78;;
67819;SDS011;54618;52.018;5.576;2024-01-07T09:12:58;12.63;;;6.60;;
67819;SDS011;54618;52.018;5.576;2024-01-07T09:15:25;9.98;;;4.75;;
67819;SDS011;54618;52.018;5.576;2024-01-07T09:17:50;12.55;;;5.40;;
67819;SDS011;54618;52.018;5.576;2024-01-07T09:20:16;12.93;;;5.75;;
67819;SDS011;54618;52.018;5.576;2024-01-07T09:22:42;11.18;;;5.70;;
67819;SDS011;54618;52.018;5.576;2024-01-07T09:25:09;9.50;;;5.22;;
67819;SDS011;54618;52.018;5.576;2024-01-07T09:27:34;9.27;;;5.45;;
67819;SDS011;54618;52.018;5.576;2024-01-07T09:30:03;9.20;;;4.82;;
67819;SDS011;54618;52.018;5.576;2024-01-07T09:32:30;9.13;;;5.13;;
67819;SDS011;54618;52.018;5.576;2024-01-07T09:34:56;12.38;;;6.18;;
67819;SDS011;54618;52.018;5.576;2024-01-07T09:37:23;10.30;;;4.93;;
67819;SDS011;54618;52.018;5.576;2024-01-07T09:39:48;11.25;;;5.25;;
67819;SDS011;54618;52.018;5.576;2024-01-07T09:42:15;11.15;;;5.72;;
67819;SDS011;54618;52.018;5.576;2024-01-07T09:44:42;10.52;;;5.25;;
67819;SDS011;54618;52.018;5.576;2024-01-07T09:47:13;8.68;;;3.90;;
67819;SDS011;54618;52.018;5.576;2024-01-07T09:49:39;10.65;;;5.25;;
67819;SDS011;54618;52.018;5.576;2024-01-07T09:52:06;10.90;;;4.75;;
67819;SDS011;54618;52.018;5.576;2024-01-07T09:54:34;9.15;;;4.90;;
67819;SDS011;54618;52.018;5.576;2024-01-07T09:57:08;12.15;;;5.30;;
67819;SDS011;54618;52.018;5.576;2024-01-07T09:59:37;10.77;;;4.95;;
67819;SDS011;54618;52.018;5.576;2024-01-07T10:02:06;9.68;;;4.70;;
67819;SDS011;54618;52.018;5.576;2024-01-07T10:04:32;16.23;;;5.43;;
67819;SDS011;54618;52.018;5.576;2024-01-07T10:06:58;11.68;;;5.30;;
67819;SDS011;54618;52.018;5.576;2024-01-07T10:09:24;9.43;;;5.07;;
67819;SDS011;54618;52.018;5.576;2024-01-07T10:11:58;10.57;;;5.07;;
67819;SDS011;54618;52.018;5.576;2024-01-07T10:14:24;7.45;;;3.88;;
67819;SDS011;54618;52.018;5.576;2024-01-07T10:16:51;9.20;;;4.82;;
67819;SDS011;54618;52.018;5.576;2024-01-07T10:19:21;9.90;;;4.88;;
67819;SDS011;54618;52.018;5.576;2024-01-07T10:21:58;9.30;;;4.97;;
67819;SDS011;54618;52.018;5.576;2024-01-07T10:24:40;8.77;;;4.25;;
67819;SDS011;54618;52.018;5.576;2024-01-07T10:27:07;7.53;;;4.10;;
67819;SDS011;54618;52.018;5.576;2024-01-07T10:29:33;8.55;;;4.30;;
67819;SDS011;54618;52.018;5.576;2024-01-07T10:31:59;6.88;;;2.65;;
67819;SDS011;54618;52.018;5.576;2024-01-07T10:34:36;8.30;;;4.78;;
67819;SDS011;54618;52.018;5.576;2024-01-07T10:37:02;7.57;;;3.25;;
67819;SDS011;54618;52.018;5.576;2024-01-07T10:39:30;9.63;;;3.53;;
67819;SDS011;54618;52.018;5.576;2024-01-07T10:41:56;6.80;;;3.22;;
67819;SDS011;54618;52.018;5.576;2024-01-07T10:44:32;6.18;;;3.10;;
67819;SDS011;54618;52.018;5.576;2024-01-07T10:46:58;8.65;;;3.50;;
67819;SDS011;54618;52.018;5.576;2024-01-07T10:49:26;5.10;;;3.33;;
67819;SDS011;54618;52.018;5.576;2024-01-07T10:52:05;6.45;;;3.35;;
67819;SDS011;54618;52.018;5.576;2024-01-07T10:54:33;5.60;;;3.15;;
67819;SDS011;54618;52.018;5.576;2024-01-07T10:57:18;5.75;;;2.70;;
67819;SDS011;54618;52.018;5.576;2024-01-07T11:00:08;5.45;;;2.65;;
67819;SDS011;54618;52.018;5.576;2024-01-07T11:02:40;6.30;;;2.53;;
67819;SDS011;54618;52.018;5.576;2024-01-07T11:05:20;5.40;;;2.80;;
67819;SDS011;54618;52.018;5.576;2024-01-07T11:08:03;7.63;;;2.90;;
67819;SDS011;54618;52.018;5.576;2024-01-07T11:10:39;5.18;;;2.97;;
67819;SDS011;54618;52.018;5.576;2024-01-07T11:13:09;5.38;;;2.60;;
67819;SDS011;54618;52.018;5.576;2024-01-07T11:18:17;5.50;;;2.85;;
67819;SDS011;54618;52.018;5.576;2024-01-07T11:20:46;5.93;;;3.00;;
67819;SDS011;54618;52.018;5.576;2024-01-07T11:23:31;5.57;;;3.40;;
67819;SDS011;54618;52.018;5.576;2024-01-07T11:25:59;7.47;;;3.30;;
67819;SDS011;54618;52.018;5.576;2024-01-07T11:31:09;6.57;;;2.60;;
67819;SDS011;54618;52.018;5.576;2024-01-07T11:33:39;4.82;;;2.70;;
67819;SDS011;54618;52.018;5.576;2024-01-07T11:36:07;5.65;;;3.05;;
67819;SDS011;54618;52.018;5.576;2024-01-07T11:38:36;3.95;;;2.25;;
67819;SDS011;54618;52.018;5.576;2024-01-07T11:41:05;5.20;;;2.90;;
67819;SDS011;54618;52.018;5.576;2024-01-07T11:43:31;3.75;;;2.20;;
67819;SDS011;54618;52.018;5.576;2024-01-07T11:45:59;3.05;;;1.77;;
67819;SDS011;54618;52.018;5.576;2024-01-07T11:48:24;4.88;;;2.50;;
67819;SDS011;54618;52.018;5.576;2024-01-07T11:50:50;4.07;;;2.28;;
67819;SDS011;54618;52.018;5.576;2024-01-07T11:53:16;3.50;;;1.95;;
67819;SDS011;54618;52.018;5.576;2024-01-07T11:55:41;3.28;;;1.83;;
67819;SDS011;54618;52.018;5.576;2024-01-07T11:58:08;4.55;;;2.05;;
67819;SDS011;54618;52.018;5.576;2024-01-07T12:00:34;3.97;;;1.67;;
67819;SDS011;54618;52.018;5.576;2024-01-07T12:03:00;4.20;;;1.70;;
67819;SDS011;54618;52.018;5.576;2024-01-07T12:05:29;4.45;;;1.65;;
67819;SDS011;54618;52.018;5.576;2024-01-07T12:07:56;3.15;;;1.52;;
67819;SDS011;54618;52.018;5.576;2024-01-07T12:10:25;3.92;;;1.50;;
67819;SDS011;54618;52.018;5.576;2024-01-07T12:12:50;2.45;;;1.30;;
67819;SDS011;54618;52.018;5.576;2024-01-07T12:15:17;2.63;;;1.33;;
67819;SDS011;54618;52.018;5.576;2024-01-07T12:17:54;2.13;;;0.90;;
67819;SDS011;54618;52.018;5.576;2024-01-07T12:20:22;2.42;;;1.40;;
67819;SDS011;54618;52.018;5.576;2024-01-07T12:22:47;3.08;;;1.58;;
67819;SDS011;54618;52.018;5.576;2024-01-07T12:25:13;3.00;;;1.50;;
67819;SDS011;54618;52.018;5.576;2024-01-07T12:27:45;6.20;;;1.50;;
67819;SDS011;54618;52.018;5.576;2024-01-07T12:30:12;3.25;;;1.33;;
67819;SDS011;54618;52.018;5.576;2024-01-07T12:32:38;4.30;;;1.42;;
67819;SDS011;54618;52.018;5.576;2024-01-07T12:35:07;3.13;;;1.50;;
67819;SDS011;54618;52.018;5.576;2024-01-07T12:37:33;1.77;;;1.08;;
67819;SDS011;54618;52.018;5.576;2024-01-07T12:40:01;3.40;;;1.25;;
67819;SDS011;54618;52.018;5.576;2024-01-07T12:42:26;2.97;;;1.30;;
67819;SDS011;54618;52.018;5.576;2024-01-07T12:44:53;2.95;;;1.40;;
67819;SDS011;54618;52.018;5.576;2024-01-07T12:47:19;4.13;;;1.35;;
67819;SDS011;54618;52.018;5.576;2024-01-07T12:49:45;1.73;;;1.05;;
67819;SDS011;54618;52.018;5.576;2024-01-07T12:52:10;3.25;;;1.40;;
67819;SDS011;54618;52.018;5.576;2024-01-07T12:54:37;2.40;;;1.20;;
67819;SDS011;54618;52.018;5.576;2024-01-07T12:57:03;3.50;;;1.60;;
67819;SDS011;54618;52.018;5.576;2024-01-07T12:59:29;3.20;;;1.50;;
67819;SDS011;54618;52.018;5.576;2024-01-07T13:01:55;2.90;;;1.20;;
67819;SDS011;54618;52.018;5.576;2024-01-07T13:04:24;2.25;;;1.27;;
67819;SDS011;54618;52.018;5.576;2024-01-07T13:06:50;3.35;;;1.10;;
67819;SDS011;54618;52.018;5.576;2024-01-07T13:09:15;2.97;;;1.15;;
67819;SDS011;54618;52.018;5.576;2024-01-07T13:11:41;4.63;;;1.30;;
67819;SDS011;54618;52.018;5.576;2024-01-07T13:14:07;2.90;;;1.30;;
67819;SDS011;54618;52.018;5.576;2024-01-07T13:16:35;2.58;;;1.15;;
67819;SDS011;54618;52.018;5.576;2024-01-07T13:19:00;5.38;;;1.15;;
67819;SDS011;54618;52.018;5.576;2024-01-07T13:21:26;2.47;;;1.10;;
67819;SDS011;54618;52.018;5.576;2024-01-07T13:23:52;2.47;;;1.10;;
67819;SDS011;54618;52.018;5.576;2024-01-07T13:26:17;2.92;;;1.05;;
67819;SDS011;54618;52.018;5.576;2024-01-07T13:28:43;2.75;;;1.00;;
67819;SDS011;54618;52.018;5.576;2024-01-07T13:31:08;2.03;;;1.10;;
67819;SDS011;54618;52.018;5.576;2024-01-07T13:33:38;4.05;;;1.40;;
67819;SDS011;54618;52.018;5.576;2024-01-07T13:36:03;2.75;;;1.17;;
67819;SDS011;54618;52.018;5.576;2024-01-07T13:38:34;3.00;;;1.20;;
67819;SDS011;54618;52.018;5.576;2024-01-07T13:41:00;3.03;;;1.10;;
67819;SDS011;54618;52.018;5.576;2024-01-07T13:43:26;4.10;;;1.40;;
67819;SDS011;54618;52.018;5.576;2024-01-07T13:45:54;2.45;;;1.10;;
67819;SDS011;54618;52.018;5.576;2024-01-07T13:48:20;2.15;;;1.13;;
67819;SDS011;54618;52.018;5.576;2024-01-07T13:50:46;2.97;;;1.20;;
67819;SDS011;54618;52.018;5.576;2024-01-07T13:53:12;4.25;;;1.10;;
67819;SDS011;54618;52.018;5.576;2024-01-07T13:55:39;4.40;;;1.20;;
67819;SDS011;54618;52.018;5.576;2024-01-07T13:58:05;3.03;;;1.20;;
67819;SDS011;54618;52.018;5.576;2024-01-07T14:00:30;1.83;;;1.02;;
67819;SDS011;54618;52.018;5.576;2024-01-07T14:02:56;1.73;;;1.00;;
67819;SDS011;54618;52.018;5.576;2024-01-07T14:05:22;3.42;;;1.10;;
67819;SDS011;54618;52.018;5.576;2024-01-07T14:07:48;2.95;;;1.30;;
67819;SDS011;54618;52.018;5.576;2024-01-07T14:10:14;2.78;;;1.30;;
67819;SDS011;54618;52.018;5.576;2024-01-07T14:12:39;1.77;;;1.00;;
67819;SDS011;54618;52.018;5.576;2024-01-07T14:15:06;2.95;;;1.35;;
67819;SDS011;54618;52.018;5.576;2024-01-07T14:17:34;2.53;;;1.15;;
67819;SDS011;54618;52.018;5.576;2024-01-07T14:19:59;1.70;;;0.75;;
67819;SDS011;54618;52.018;5.576;2024-01-07T14:22:25;2.95;;;0.95;;
67819;SDS011;54618;52.018;5.576;2024-01-07T14:24:51;3.15;;;1.25;;
67819;SDS011;54618;52.018;5.576;2024-01-07T14:27:16;4.97;;;1.10;;
67819;SDS011;54618;52.018;5.576;2024-01-07T14:29:42;3.95;;;1.02;;
67819;SDS011;54618;52.018;5.576;2024-01-07T14:32:08;2.85;;;1.02;;
67819;SDS011;54618;52.018;5.576;2024-01-07T14:34:37;3.85;;;1.08;;
67819;SDS011;54618;52.018;5.576;2024-01-07T14:37:04;3.35;;;1.00;;
67819;SDS011;54618;52.018;5.576;2024-01-07T14:39:30;3.45;;;1.00;;